< < Back
Terminal Aerodrome Forecast


Current Version              Previous Versions:   1  2  3  4  5  6  7  8  9  

Terminal Aerodrome Forecast

551
FTUS44 KMOB 221739
TAFPNS
TAF
KPNS 221739Z 2218/2318 03008KT P6SM FEW060 SCT120 SCT300
     FM222100 VRB05KT P6SM FEW060 SCT300
     FM231500 10008KT P6SM FEW060 SCT300=

Latest METAR

526
SAUS70 KWBC 230100 RRP
MTRPNS
METAR KPNS 230053Z 01003KT 10SM CLR 24/16 A3015 RMK AO2 SLP210
T02440156


USA.gov is the U.S. government's official web portal to all federal, state and local government web resources and services.